Time;durP1;ratioP1;P1;durP2;ratioP2;P2;SDS_P1;SDS_P2;PMS_P1;PMS_P2;Temp;Humidity;BMP_temperature;BMP_pressure;BME280_temperature;BME280_humidity;BME280_pressure;Samples;Min_cycle;Max_cycle;Signal;HPM_P1;HPM_P2
2023/12/09 00:00:52;;;;;;;16.08;4.78;;;;;;;7.90;92.55;98738.06;5037476;28;20041;-53
2023/12/09 00:03:19;;;;;;;18.73;3.20;;;;;;;7.92;92.59;98721.94;5039033;28;20049;-56
2023/12/09 00:05:47;;;;;;;13.77;3.33;;;;;;;7.92;92.55;98713.66;5039358;28;20387;-53
2023/12/09 00:08:14;;;;;;;19.65;3.50;;;;;;;7.93;92.47;98716.06;5024727;28;20045;-49
2023/12/09 00:10:42;;;;;;;15.30;3.92;;;;;;;7.96;92.44;98704.28;5039745;28;20045;-52
2023/12/09 00:13:10;;;;;;;17.13;3.58;;;;;;;7.99;92.45;98697.22;5034686;28;20044;-53
2023/12/09 00:15:38;;;;;;;14.68;3.00;;;;;;;8.02;92.46;98695.69;5037600;28;20056;-52
2023/12/09 00:18:05;;;;;;;17.27;3.67;;;;;;;8.02;92.40;98712.22;5037358;28;20048;-53
2023/12/09 00:20:33;;;;;;;17.63;3.80;;;;;;;8.05;92.49;98705.97;5032562;28;20038;-50
2023/12/09 00:23:00;;;;;;;35.95;6.05;;;;;;;8.06;92.58;98708.31;5039060;28;20056;-56
2023/12/09 00:25:28;;;;;;;18.60;4.28;;;;;;;8.08;92.55;98691.41;5038332;28;20491;-51
2023/12/09 00:27:55;;;;;;;22.88;3.90;;;;;;;8.07;92.60;98695.34;5036267;28;20052;-53
2023/12/09 00:30:23;;;;;;;16.77;3.55;;;;;;;8.07;92.81;98698.09;5038246;28;20050;-50
2023/12/09 00:32:51;;;;;;;10.00;2.53;;;;;;;8.09;92.88;98690.25;5036071;28;20526;-52
2023/12/09 00:35:18;;;;;;;30.13;4.43;;;;;;;8.10;92.98;98680.81;5032141;28;20049;-52
2023/12/09 00:37:46;;;;;;;20.70;4.93;;;;;;;8.13;93.08;98680.06;5039994;28;20044;-53
2023/12/09 00:40:13;;;;;;;13.77;3.50;;;;;;;8.14;93.19;98681.63;5034701;28;20049;-53
2023/12/09 00:42:41;;;;;;;12.75;3.80;;;;;;;8.14;93.25;98674.16;5038976;28;20557;-49
2023/12/09 00:45:09;;;;;;;12.02;2.35;;;;;;;8.17;93.53;98667.09;5035996;28;20042;-52
2023/12/09 00:47:36;;;;;;;19.48;3.55;;;;;;;8.18;93.58;98654.91;5035783;28;20041;-51
2023/12/09 00:50:04;;;;;;;12.88;2.40;;;;;;;8.21;93.63;98654.13;5038012;28;20049;-54
2023/12/09 00:52:32;;;;;;;17.77;2.88;;;;;;;8.22;93.61;98661.22;5026418;28;20037;-52
2023/12/09 00:55:00;;;;;;;11.82;2.67;;;;;;;8.21;93.67;98660.44;5035600;28;20057;-54
2023/12/09 00:57:27;;;;;;;11.50;2.33;;;;;;;8.25;94.03;98663.22;5040402;28;20046;-54
2023/12/09 00:59:55;;;;;;;19.33;4.82;;;;;;;8.27;94.15;98663.66;5035413;28;20053;-52
2023/12/09 01:02:22;;;;;;;10.93;2.03;;;;;;;8.31;94.31;98664.50;5037766;28;20053;-54
2023/12/09 01:04:50;;;;;;;12.30;2.65;;;;;;;8.34;94.34;98663.75;5026523;28;20041;-50
2023/12/09 01:07:17;;;;;;;10.57;2.08;;;;;;;8.36;94.44;98661.38;5036643;28;20048;-53
2023/12/09 01:09:45;;;;;;;13.65;2.55;;;;;;;8.38;94.59;98645.25;5034601;28;20074;-52
2023/12/09 01:12:12;;;;;;;7.10;1.90;;;;;;;8.39;94.78;98642.09;5035119;28;20048;-50
2023/12/09 01:14:39;;;;;;;13.75;3.80;;;;;;;8.41;94.61;98631.50;5037502;28;20038;-51
2023/12/09 01:17:07;;;;;;;9.82;1.75;;;;;;;8.44;94.94;98616.16;5039958;28;20049;-56
2023/12/09 01:19:34;;;;;;;10.50;2.35;;;;;;;8.45;95.19;98628.75;5046269;28;20060;-53
2023/12/09 01:22:01;;;;;;;11.73;2.80;;;;;;;8.44;95.38;98622.47;5038040;28;20491;-49
2023/12/09 01:24:29;;;;;;;11.27;2.53;;;;;;;8.45;95.50;98609.44;5030560;28;20049;-51
2023/12/09 01:26:56;;;;;;;11.98;2.00;;;;;;;8.46;95.67;98605.53;5040092;28;20053;-52
2023/12/09 01:29:24;;;;;;;5.63;1.85;;;;;;;8.46;95.89;98611.06;5040398;28;20071;-54
2023/12/09 01:31:51;;;;;;;6.30;1.70;;;;;;;8.44;96.00;98618.91;5039171;28;20053;-53
2023/12/09 01:34:18;;;;;;;6.72;1.80;;;;;;;8.44;96.22;98610.66;5034330;28;20045;-48
2023/12/09 01:36:46;;;;;;;9.85;1.70;;;;;;;8.44;96.31;98607.88;5044656;28;20059;-51
2023/12/09 01:39:14;;;;;;;8.75;2.05;;;;;;;8.42;96.29;98608.25;5047107;28;20095;-53
2023/12/09 01:41:42;;;;;;;7.70;1.80;;;;;;;8.41;96.52;98603.13;5050474;28;20057;-53
2023/12/09 01:44:09;;;;;;;9.90;2.67;;;;;;;8.39;96.63;98594.47;5049684;28;20049;-50
2023/12/09 01:46:38;;;;;;;19.25;5.13;;;;;;;8.36;96.74;98584.19;5042814;28;20800;-49
2023/12/09 01:49:05;;;;;;;10.57;3.28;;;;;;;8.31;96.94;98582.56;5045229;28;20061;-53
2023/12/09 01:51:35;;;;;;;12.55;2.70;;;;;;;8.30;97.06;98566.41;5049392;28;20056;-54
2023/12/09 01:54:02;;;;;;;9.57;3.35;;;;;;;8.27;97.07;98553.41;5048618;28;20048;-53
2023/12/09 01:56:30;;;;;;;15.38;3.72;;;;;;;8.25;97.26;98539.19;5048635;28;20057;-51
2023/12/09 01:58:57;;;;;;;12.05;2.58;;;;;;;8.24;97.22;98534.84;5031502;28;20037;-53
2023/12/09 02:01:25;;;;;;;16.02;3.13;;;;;;;8.23;97.33;98536.03;5048547;28;20060;-53
2023/12/09 02:03:53;;;;;;;12.35;2.97;;;;;;;8.21;97.46;98522.59;5031253;28;20033;-48
2023/12/09 02:06:21;;;;;;;9.85;3.58;;;;;;;8.23;97.80;98525.00;5047518;28;20678;-50
2023/12/09 02:08:48;;;;;;;11.13;2.55;;;;;;;8.23;97.71;98502.94;5048808;28;20041;-50
2023/12/09 02:11:49;;;;;;;17.30;2.85;;;;;;;8.22;97.89;98493.09;5048610;28;20072;-52
2023/12/09 02:14:21;;;;;;;12.13;2.22;;;;;;;8.23;97.86;98484.44;5046415;28;20049;-53
2023/12/09 02:17:07;;;;;;;12.00;2.42;;;;;;;8.24;98.05;98468.69;5043416;28;20049;-54
2023/12/09 02:19:36;;;;;;;9.45;3.35;;;;;;;8.26;98.37;98452.56;5047813;28;20071;-53
2023/12/09 02:22:05;;;;;;;7.93;2.28;;;;;;;8.25;98.47;98443.50;5048734;28;20060;-52
2023/12/09 02:24:33;;;;;;;11.40;2.22;;;;;;;8.25;98.48;98437.19;5048666;28;20510;-52
2023/12/09 02:27:09;;;;;;;7.72;2.35;;;;;;;8.25;98.75;98438.00;5046496;28;20056;-53
2023/12/09 02:29:48;;;;;;;10.07;2.50;;;;;;;8.24;98.93;98428.13;5047721;28;20060;-53
2023/12/09 02:32:18;;;;;;;7.80;2.08;;;;;;;8.24;99.21;98406.06;5048563;28;20037;-48
2023/12/09 02:34:47;;;;;;;4.97;1.60;;;;;;;8.26;99.43;98402.94;5048701;28;20040;-51
2023/12/09 02:37:15;;;;;;;7.38;1.67;;;;;;;8.27;99.47;98388.81;5036471;28;20408;-52
2023/12/09 02:39:43;;;;;;;11.80;2.30;;;;;;;8.27;99.78;98382.50;5046418;28;20056;-53
2023/12/09 02:42:11;;;;;;;8.90;1.92;;;;;;;8.28;99.88;98379.38;5047868;28;20053;-53
2023/12/09 02:44:42;;;;;;;6.40;1.40;;;;;;;8.29;100.00;98386.44;5048209;28;20056;-51
2023/12/09 02:47:13;;;;;;;8.32;1.25;;;;;;;8.30;100.00;98378.97;5044644;28;20041;-53
2023/12/09 02:49:42;;;;;;;19.20;3.20;;;;;;;8.30;100.00;98359.66;5048266;28;20056;-50
2023/12/09 02:52:11;;;;;;;4.63;1.42;;;;;;;8.32;100.00;98360.06;5047375;28;20060;-53
2023/12/09 02:54:38;;;;;;;7.15;1.77;;;;;;;8.30;100.00;98338.41;5047648;28;20048;-49
2023/12/09 02:57:05;;;;;;;7.28;2.05;;;;;;;8.31;100.00;98333.69;5034977;28;20503;-49
2023/12/09 02:59:33;;;;;;;7.93;2.47;;;;;;;8.32;100.00;98326.97;5039947;28;20053;-52
2023/12/09 03:02:01;;;;;;;4.88;1.63;;;;;;;8.32;100.00;98313.19;4948223;22;20060;-49
2023/12/09 03:04:28;;;;;;;5.45;1.50;;;;;;;8.34;100.00;98321.88;5047582;28;20388;-53
2023/12/09 03:06:55;;;;;;;9.57;2.10;;;;;;;8.34;100.00;98295.09;5047500;28;20061;-49
2023/12/09 03:09:24;;;;;;;8.23;1.67;;;;;;;8.36;100.00;98289.19;5047865;28;20041;-47
2023/12/09 03:11:51;;;;;;;8.65;1.92;;;;;;;8.36;100.00;98280.94;5047391;28;20049;-50
2023/12/09 03:14:19;;;;;;;3.47;1.00;;;;;;;8.36;100.00;98267.16;5047636;28;20498;-49
2023/12/09 03:16:46;;;;;;;3.15;1.88;;;;;;;8.37;100.00;98272.25;5047703;28;20043;-49
2023/12/09 03:19:13;;;;;;;6.07;2.03;;;;;;;8.37;100.00;98254.91;5047628;28;20051;-49
2023/12/09 03:21:41;;;;;;;3.28;1.60;;;;;;;8.38;100.00;98237.22;5009327;28;20822;-48
2023/12/09 03:24:08;;;;;;;3.65;2.13;;;;;;;8.39;100.00;98219.50;5020504;28;20049;-55
2023/12/09 03:26:36;;;;;;;3.05;1.15;;;;;;;8.40;100.00;98187.97;5047208;28;20079;-47
2023/12/09 03:29:03;;;;;;;1.75;0.80;;;;;;;8.40;100.00;98160.41;5047451;28;20390;-49
2023/12/09 03:31:30;;;;;;;7.00;0.60;;;;;;;8.41;100.00;98173.03;5047068;28;20049;-52
2023/12/09 03:33:58;;;;;;;5.37;1.70;;;;;;;8.43;100.00;98209.25;5047697;28;20138;-48
2023/12/09 03:36:25;;;;;;;4.57;1.30;;;;;;;8.44;100.00;98211.63;5046979;28;20865;-53
2023/12/09 03:38:53;;;;;;;5.20;2.40;;;;;;;8.45;100.00;98180.09;5047347;28;20065;-52
2023/12/09 03:41:20;;;;;;;2.53;1.33;;;;;;;8.47;100.00;98160.44;5046650;28;20120;-52
2023/12/09 03:43:52;;;;;;;5.27;1.47;;;;;;;8.48;100.00;98139.94;5047290;28;20053;-49
2023/12/09 03:46:19;;;;;;;3.10;0.50;;;;;;;8.50;100.00;98104.47;5046613;28;20040;-50
2023/12/09 03:48:47;;;;;;;3.42;0.75;;;;;;;8.51;100.00;98084.00;5047267;28;20051;-52
2023/12/09 03:51:14;;;;;;;3.08;1.30;;;;;;;8.52;100.00;98072.56;5047090;28;20437;-51
2023/12/09 03:53:42;;;;;;;4.40;1.38;;;;;;;8.53;100.00;98057.59;5057554;28;20056;-46
2023/12/09 03:56:13;;;;;;;3.92;1.20;;;;;;;8.54;100.00;98056.44;5046609;28;20045;-46
2023/12/09 03:58:40;;;;;;;4.38;1.38;;;;;;;8.56;100.00;98047.75;5047533;28;20072;-49
2023/12/09 04:01:08;;;;;;;2.50;1.27;;;;;;;8.58;100.00;98054.44;5047230;28;20053;-46
2023/12/09 04:03:35;;;;;;;4.00;1.05;;;;;;;8.60;100.00;98059.56;5046852;28;20536;-52
2023/12/09 04:06:04;;;;;;;6.15;1.55;;;;;;;8.61;100.00;98050.09;5046722;28;20041;-53
2023/12/09 04:08:31;;;;;;;5.95;1.00;;;;;;;8.64;100.00;98046.53;5047418;28;20044;-49
2023/12/09 04:10:59;;;;;;;1.73;0.70;;;;;;;8.70;100.00;98035.91;5047150;28;20052;-45
2023/12/09 04:13:27;;;;;;;3.58;1.00;;;;;;;8.74;100.00;98020.09;5046386;28;20041;-47
2023/12/09 04:15:54;;;;;;;6.13;1.00;;;;;;;8.76;100.00;98012.25;5046853;28;20049;-48
2023/12/09 04:18:22;;;;;;;8.38;1.27;;;;;;;8.79;100.00;98009.44;5028897;28;20120;-48
2023/12/09 04:20:50;;;;;;;3.30;1.10;;;;;;;8.81;100.00;97996.06;5029230;28;20495;-47
2023/12/09 04:23:18;;;;;;;4.10;0.73;;;;;;;8.83;100.00;97977.13;5046368;28;20049;-50
2023/12/09 04:25:46;;;;;;;3.55;0.98;;;;;;;8.85;100.00;97974.75;5046051;28;20041;-47
2023/12/09 04:28:13;;;;;;;3.13;1.08;;;;;;;8.87;100.00;97964.09;5046218;28;20041;-50
2023/12/09 04:30:41;;;;;;;3.13;0.98;;;;;;;8.91;100.00;97964.09;5045265;28;20041;-49
2023/12/09 04:33:08;;;;;;;4.85;0.90;;;;;;;8.92;100.00;97960.91;5045207;28;20049;-52
2023/12/09 04:35:36;;;;;;;6.40;0.98;;;;;;;8.95;100.00;97960.13;5045720;28;20055;-50
2023/12/09 04:38:03;;;;;;;7.43;1.08;;;;;;;8.97;100.00;97960.53;5045559;28;20045;-49
2023/12/09 04:40:30;;;;;;;7.78;1.90;;;;;;;9.00;100.00;97934.09;5045741;28;20052;-48
2023/12/09 04:42:58;;;;;;;11.85;1.27;;;;;;;9.02;100.00;97910.44;5046243;28;20040;-50
2023/12/09 04:45:25;;;;;;;4.13;0.95;;;;;;;9.05;100.00;97904.09;5045065;28;20041;-47
2023/12/09 04:47:52;;;;;;;6.60;2.35;;;;;;;9.08;100.00;97897.75;5031539;28;20049;-46
2023/12/09 04:50:20;;;;;;;11.85;1.33;;;;;;;9.10;100.00;97878.06;5045915;28;20053;-51
2023/12/09 04:52:48;;;;;;;8.85;1.10;;;;;;;9.11;100.00;97863.84;5048753;28;20068;-46
2023/12/09 04:55:15;;;;;;;8.13;1.65;;;;;;;9.13;100.00;97853.16;5049235;28;20045;-46
2023/12/09 04:57:43;;;;;;;4.10;1.13;;;;;;;9.14;100.00;97846.47;5036242;28;20056;-50
2023/12/09 05:00:11;;;;;;;17.05;2.08;;;;;;;9.16;100.00;97846.06;5048924;28;20136;-45
2023/12/09 05:02:39;;;;;;;12.40;1.98;;;;;;;9.18;100.00;97840.94;5049141;28;20514;-46
2023/12/09 05:05:06;;;;;;;5.35;1.15;;;;;;;9.18;100.00;97835.41;5049331;28;20112;-49
2023/12/09 05:07:34;;;;;;;9.27;1.88;;;;;;;9.18;100.00;97825.16;5049456;28;20675;-45
2023/12/09 05:10:03;;;;;;;10.80;1.83;;;;;;;9.19;100.00;97812.91;5049119;28;20043;-45
2023/12/09 05:12:32;;;;;;;17.95;3.65;;;;;;;9.20;100.00;97808.19;5048740;28;20055;-48
2023/12/09 05:14:59;;;;;;;16.60;2.83;;;;;;;9.19;100.00;97788.06;5048505;28;20045;-47
2023/12/09 05:17:27;;;;;;;7.93;1.70;;;;;;;9.19;100.00;97776.25;5048995;28;20057;-50
2023/12/09 05:19:54;;;;;;;15.80;2.00;;;;;;;9.19;100.00;97766.00;5011141;28;20059;-45
2023/12/09 05:22:21;;;;;;;19.25;2.88;;;;;;;9.21;100.00;97759.28;5048285;28;20053;-49
2023/12/09 05:24:50;;;;;;;11.95;1.77;;;;;;;9.21;100.00;97751.00;5048811;28;20060;-47
2023/12/09 05:27:17;;;;;;;8.20;1.20;;;;;;;9.22;100.00;97736.00;5049202;28;20048;-48
2023/12/09 05:29:45;;;;;;;13.30;1.40;;;;;;;9.22;100.00;97713.91;5048441;28;20070;-51
2023/12/09 05:32:12;;;;;;;4.40;0.75;;;;;;;9.23;100.00;97726.53;5048728;28;20048;-48
2023/12/09 05:34:39;;;;;;;3.92;0.55;;;;;;;9.24;100.00;97717.06;5023721;28;20120;-47
2023/12/09 05:37:07;;;;;;;4.25;0.57;;;;;;;9.24;100.00;97706.03;5048183;28;20037;-51
2023/12/09 05:39:35;;;;;;;3.33;0.73;;;;;;;9.26;100.00;97692.59;5047764;28;20037;-48
2023/12/09 05:42:04;;;;;;;2.35;0.57;;;;;;;9.28;100.00;97687.44;5040112;28;20523;-49
2023/12/09 05:44:32;;;;;;;0.50;0.50;;;;;;;9.29;100.00;97686.25;5047523;28;20059;-49
2023/12/09 05:46:59;;;;;;;0.52;0.32;;;;;;;9.31;100.00;97683.84;5048894;28;20052;-48
2023/12/09 05:49:26;;;;;;;2.95;0.45;;;;;;;9.31;100.00;97667.28;5048174;28;20060;-49
2023/12/09 05:51:54;;;;;;;2.15;0.50;;;;;;;9.32;100.00;97671.63;5048862;28;20410;-52
2023/12/09 05:54:21;;;;;;;1.65;0.63;;;;;;;9.33;100.00;97662.13;5028981;28;20506;-48
2023/12/09 05:56:49;;;;;;;3.60;0.60;;;;;;;9.34;100.00;97658.97;5047979;28;20678;-49
2023/12/09 05:59:16;;;;;;;3.35;0.70;;;;;;;9.32;100.00;97655.81;5043730;28;20037;-49
2023/12/09 06:01:44;;;;;;;0.40;0.40;;;;;;;9.33;100.00;97649.13;5046887;28;20060;-48
2023/12/09 06:04:11;;;;;;;3.60;0.70;;;;;;;9.35;100.00;97651.47;5048530;28;20714;-48
2023/12/09 06:06:38;;;;;;;0.80;0.40;;;;;;;9.35;100.00;97641.19;5047840;28;20044;-48
2023/12/09 06:09:06;;;;;;;1.20;0.40;;;;;;;9.37;100.00;97635.28;5047998;28;20060;-48
2023/12/09 06:11:34;;;;;;;0.40;0.40;;;;;;;9.37;100.00;97635.28;5047249;28;20036;-45
2023/12/09 06:14:01;;;;;;;0.43;0.20;;;;;;;9.37;100.00;97621.47;5030106;28;20052;-48
2023/12/09 06:16:28;;;;;;;3.13;0.40;;;;;;;9.38;100.00;97623.03;5047084;28;20053;-51
2023/12/09 06:18:56;;;;;;;0.22;0.10;;;;;;;9.39;100.00;97624.59;5048296;28;20041;-47
2023/12/09 06:21:24;;;;;;;0.65;0.20;;;;;;;9.41;100.00;97622.22;5046886;28;20041;-47
2023/12/09 06:23:53;;;;;;;0.63;0.20;;;;;;;9.43;100.00;97625.34;5047999;28;20045;-49
2023/12/09 06:26:20;;;;;;;0.40;0.15;;;;;;;9.43;100.00;97623.34;5047211;28;20040;-51
2023/12/09 06:28:47;;;;;;;1.65;0.43;;;;;;;9.44;100.00;97615.88;5041953;28;20442;-51
2023/12/09 06:31:15;;;;;;;0.95;0.30;;;;;;;9.45;100.00;97617.44;5047806;28;20059;-46
2023/12/09 06:33:42;;;;;;;1.70;0.63;;;;;;;9.45;100.00;97611.91;5047416;28;20064;-48
2023/12/09 06:36:10;;;;;;;0.25;0.10;;;;;;;9.47;100.00;97604.00;5046664;28;20053;-47
2023/12/09 06:38:39;;;;;;;1.05;0.10;;;;;;;9.51;100.00;97615.75;5047912;28;20148;-49
2023/12/09 06:41:07;;;;;;;1.67;0.20;;;;;;;9.56;100.00;97604.25;5046906;28;20056;-52
2023/12/09 06:43:35;;;;;;;0.75;0.20;;;;;;;9.62;100.00;97600.63;5046946;28;20045;-47
2023/12/09 06:46:03;;;;;;;0.10;0.10;;;;;;;9.71;100.00;97597.38;5047026;28;20071;-46
2023/12/09 06:48:30;;;;;;;0.57;0.20;;;;;;;9.77;100.00;97602.00;5048104;28;20060;-46
2023/12/09 06:50:57;;;;;;;0.20;0.20;;;;;;;9.85;100.00;97604.69;5046774;28;20782;-49
2023/12/09 06:53:25;;;;;;;1.00;0.22;;;;;;;9.95;100.00;97596.22;5038642;28;20040;-47
2023/12/09 06:55:53;;;;;;;0.45;0.30;;;;;;;10.04;100.00;97599.25;5047133;28;20514;-49
2023/12/09 06:58:20;;;;;;;1.52;0.20;;;;;;;10.09;100.00;97593.25;5048018;28;20060;-46
2023/12/09 07:00:48;;;;;;;0.45;0.17;;;;;;;10.16;100.00;97597.91;5047146;28;20402;-52
2023/12/09 07:03:15;;;;;;;1.98;0.30;;;;;;;10.19;100.00;97608.91;5047458;28;20037;-48
2023/12/09 07:05:43;;;;;;;1.40;0.17;;;;;;;10.24;100.00;97591.06;5047176;28;20048;-46
2023/12/09 07:08:10;;;;;;;0.57;0.10;;;;;;;10.25;100.00;97598.16;5049493;28;20088;-54
2023/12/09 07:10:38;;;;;;;0.73;0.30;;;;;;;10.27;100.00;97599.28;5029981;28;20387;-50
2023/12/09 07:13:05;;;;;;;0.63;0.30;;;;;;;10.29;100.00;97594.16;5047312;28;20049;-48
2023/12/09 07:15:32;;;;;;;2.55;0.30;;;;;;;10.33;100.00;97586.56;5047076;28;20061;-46
2023/12/09 07:18:00;;;;;;;1.58;0.38;;;;;;;10.35;100.00;97577.88;5046502;28;20053;-47
2023/12/09 07:20:28;;;;;;;1.02;0.55;;;;;;;10.34;100.00;97585.38;5029363;28;20045;-46
2023/12/09 07:22:55;;;;;;;1.63;0.88;;;;;;;10.33;100.00;97581.03;5029532;28;20045;-52
2023/12/09 07:25:23;;;;;;;0.77;0.30;;;;;;;10.30;100.00;97568.03;5046705;28;20045;-51
2023/12/09 07:27:51;;;;;;;3.67;1.30;;;;;;;10.26;100.00;97572.88;5046955;28;20053;-50
2023/12/09 07:30:20;;;;;;;5.10;0.88;;;;;;;10.25;100.00;97571.28;5046351;28;20049;-46
2023/12/09 07:32:48;;;;;;;2.33;1.15;;;;;;;10.22;100.00;97572.13;5046285;28;20053;-49
2023/12/09 07:35:17;;;;;;;2.92;0.30;;;;;;;10.23;100.00;97579.22;5046720;28;20418;-49
2023/12/09 07:37:44;;;;;;;2.55;0.65;;;;;;;10.25;100.00;97592.63;5047560;28;20418;-52
2023/12/09 07:40:15;;;;;;;1.58;0.20;;;;;;;10.27;100.00;97591.00;5029085;28;20044;-49
2023/12/09 07:42:43;;;;;;;5.60;0.40;;;;;;;10.30;100.00;97594.91;5046920;28;20076;-51
2023/12/09 07:45:11;;;;;;;2.75;0.63;;;;;;;10.34;100.00;97590.13;5046455;28;20100;-51
2023/12/09 07:47:38;;;;;;;0.70;0.38;;;;;;;10.37;100.00;97594.81;5034431;28;20037;-50
2023/12/09 07:50:06;;;;;;;2.55;0.57;;;;;;;10.37;100.00;97598.38;5030088;28;20519;-47
2023/12/09 07:52:33;;;;;;;3.30;1.10;;;;;;;10.39;100.00;97593.19;5049104;28;20744;-48
2023/12/09 07:55:00;;;;;;;5.38;0.70;;;;;;;10.38;100.00;97608.22;5037953;28;20061;-50
2023/12/09 07:57:28;;;;;;;4.22;0.73;;;;;;;10.38;100.00;97599.13;5046391;28;20052;-53
2023/12/09 07:59:56;;;;;;;4.03;0.75;;;;;;;10.35;100.00;97609.03;5047268;28;20047;-48
2023/12/09 08:02:24;;;;;;;2.78;0.70;;;;;;;10.31;100.00;97619.41;5046309;28;20059;-52
2023/12/09 08:04:51;;;;;;;1.65;0.50;;;;;;;10.25;100.00;97643.19;5034168;28;20061;-49
2023/12/09 08:07:19;;;;;;;4.45;0.80;;;;;;;10.21;100.00;97625.09;5054913;28;20053;-49
2023/12/09 08:09:47;;;;;;;1.08;0.57;;;;;;;10.16;100.00;97617.28;5046982;28;20481;-50
2023/12/09 08:12:14;;;;;;;3.42;0.60;;;;;;;10.14;100.00;97619.69;5045421;28;20064;-50
2023/12/09 08:14:42;;;;;;;1.40;0.50;;;;;;;10.11;100.00;97637.81;5046093;28;20045;-53
2023/12/09 08:17:09;;;;;;;2.88;0.70;;;;;;;10.10;100.00;97622.44;5043734;28;20049;-51
2023/12/09 08:19:37;;;;;;;3.92;0.75;;;;;;;10.08;100.00;97638.69;5044629;28;20049;-50
2023/12/09 08:22:04;;;;;;;4.30;0.68;;;;;;;10.06;100.00;97651.34;5049939;28;20064;-49
2023/12/09 08:24:31;;;;;;;2.78;0.93;;;;;;;10.02;100.00;97634.03;5050713;28;20052;-49
2023/12/09 08:26:59;;;;;;;2.92;0.50;;;;;;;9.98;100.00;97634.06;5050075;28;20507;-49
2023/12/09 08:29:26;;;;;;;3.63;0.43;;;;;;;9.94;100.00;97643.63;5050067;28;20056;-50
2023/12/09 08:31:56;;;;;;;1.95;0.80;;;;;;;9.91;100.00;97634.19;5050511;28;20052;-47
2023/12/09 08:34:24;;;;;;;2.72;0.88;;;;;;;9.87;100.00;97650.03;5047963;28;20056;-49
2023/12/09 08:36:51;;;;;;;1.88;0.40;;;;;;;9.82;100.00;97633.91;5050103;28;20064;-55
2023/12/09 08:39:19;;;;;;;1.75;0.82;;;;;;;9.77;100.00;97635.16;5050412;28;20052;-49
2023/12/09 08:41:46;;;;;;;4.40;0.68;;;;;;;9.75;100.00;97629.25;5033261;28;20049;-47
2023/12/09 08:44:13;;;;;;;5.30;1.25;;;;;;;9.76;100.00;97630.06;5050804;28;20321;-53
2023/12/09 08:46:41;;;;;;;3.75;0.70;;;;;;;9.74;100.00;97627.69;5033237;28;20522;-52
2023/12/09 08:49:09;;;;;;;10.40;2.25;;;;;;;9.74;100.00;97649.03;5049213;28;20052;-50
2023/12/09 08:51:46;;;;;;;2.83;1.20;;;;;;;9.72;100.00;97632.06;5047893;28;20049;-49
2023/12/09 08:54:14;;;;;;;2.70;0.63;;;;;;;9.73;100.00;97650.22;5059824;28;20041;-50
2023/12/09 08:56:42;;;;;;;3.88;0.80;;;;;;;9.71;100.00;97641.56;5049737;28;20048;-48
2023/12/09 08:59:10;;;;;;;6.95;0.88;;;;;;;9.71;100.00;97658.13;5049783;28;20037;-49
2023/12/09 09:01:38;;;;;;;2.50;1.10;;;;;;;9.68;100.00;97658.97;5042959;28;20049;-48
2023/12/09 09:04:05;;;;;;;4.88;0.93;;;;;;;9.68;100.00;97643.19;5031520;28;20060;-53
2023/12/09 09:06:34;;;;;;;4.57;0.75;;;;;;;9.68;100.00;97651.47;5015616;28;20060;-51
2023/12/09 09:09:04;;;;;;;6.78;1.20;;;;;;;9.70;100.00;97637.22;5036427;28;20068;-50
2023/12/09 09:11:31;;;;;;;6.80;1.75;;;;;;;9.69;100.00;97635.66;5033722;28;20057;-53
2023/12/09 09:13:59;;;;;;;6.13;1.20;;;;;;;9.69;100.00;97643.94;5030630;28;20037;-47
2023/12/09 09:16:27;;;;;;;8.85;1.70;;;;;;;9.70;100.00;97656.56;5038290;28;20041;-52
2023/12/09 09:18:54;;;;;;;6.50;1.52;;;;;;;9.72;100.00;97667.97;4999175;28;20164;-51
2023/12/09 09:21:23;;;;;;;8.85;1.98;;;;;;;9.71;100.00;97674.72;5030112;28;20042;-51
2023/12/09 09:23:51;;;;;;;6.18;3.38;;;;;;;9.71;100.00;97680.25;5030845;28;20507;-50
2023/12/09 09:26:19;;;;;;;6.28;2.58;;;;;;;9.71;100.00;97675.50;5031318;28;20048;-49
2023/12/09 09:28:46;;;;;;;11.50;1.80;;;;;;;9.71;100.00;97685.75;5035244;28;20503;-49
2023/12/09 09:31:14;;;;;;;13.57;2.35;;;;;;;9.67;100.00;97699.59;5039253;28;20068;-52
2023/12/09 09:33:42;;;;;;;9.27;1.58;;;;;;;9.65;100.00;97701.22;5028102;28;20041;-51
2023/12/09 09:36:09;;;;;;;13.13;2.67;;;;;;;9.63;100.00;97689.81;5030679;28;20048;-49
2023/12/09 09:38:38;;;;;;;20.85;4.55;;;;;;;9.61;100.00;97681.91;5049189;28;20063;-49
2023/12/09 09:41:13;;;;;;;20.88;3.70;;;;;;;9.59;100.00;97702.84;5047925;28;20041;-47
2023/12/09 09:43:46;;;;;;;24.38;5.80;;;;;;;9.56;100.00;97712.75;5048912;28;20057;-46
2023/12/09 09:46:14;;;;;;;40.60;5.65;;;;;;;9.56;100.00;97714.72;5044742;28;20061;-51
2023/12/09 09:48:44;;;;;;;30.48;7.28;;;;;;;9.55;100.00;97721.47;5045959;28;20041;-49
2023/12/09 09:51:16;;;;;;;42.72;9.10;;;;;;;9.56;100.00;97714.72;5047910;28;20045;-49
2023/12/09 09:54:01;;;;;;;30.77;7.82;;;;;;;9.58;100.00;97734.44;5049559;28;20056;-50
2023/12/09 09:56:31;;;;;;;28.73;9.20;;;;;;;9.58;100.00;97723.41;5048413;28;20067;-51
2023/12/09 09:59:00;;;;;;;30.52;6.45;;;;;;;9.61;100.00;97731.63;5048932;28;20051;-52
2023/12/09 10:01:29;;;;;;;28.45;5.93;;;;;;;9.61;100.00;97739.16;5047804;28;20084;-50
2023/12/09 10:03:56;;;;;;;30.77;5.25;;;;;;;9.61;100.00;97731.63;5045457;28;20037;-49
2023/12/09 10:06:24;;;;;;;43.30;9.80;;;;;;;9.62;100.00;97738.72;5048276;28;20072;-48
2023/12/09 10:08:52;;;;;;;36.95;7.20;;;;;;;9.64;100.00;97741.88;5045348;28;20056;-50
2023/12/09 10:11:20;;;;;;;25.33;5.22;;;;;;;9.64;100.00;97744.63;5047117;28;20044;-50
2023/12/09 10:13:48;;;;;;;32.78;7.05;;;;;;;9.68;100.00;97736.31;5035983;28;20052;-53
2023/12/09 10:16:15;;;;;;;31.40;5.90;;;;;;;9.71;100.00;97754.81;5047861;28;20052;-51
2023/12/09 10:18:46;;;;;;;31.45;7.35;;;;;;;9.73;100.00;97738.63;5048301;28;20060;-48
2023/12/09 10:21:15;;;;;;;28.15;6.15;;;;;;;9.77;100.00;97740.13;5046926;28;20048;-53
2023/12/09 10:23:45;;;;;;;39.53;6.93;;;;;;;9.83;100.00;97754.28;5048386;28;20048;-51
2023/12/09 10:26:14;;;;;;;29.73;5.88;;;;;;;9.86;100.00;97750.69;5047663;28;20064;-52
2023/12/09 10:28:41;;;;;;;36.55;7.50;;;;;;;9.86;100.00;97750.69;5048182;28;20690;-49
2023/12/09 10:31:09;;;;;;;24.77;5.45;;;;;;;9.86;100.00;97747.13;5047314;28;20044;-50
2023/12/09 10:33:37;;;;;;;26.52;5.57;;;;;;;9.86;100.00;97745.16;5046454;28;20045;-49
2023/12/09 10:36:06;;;;;;;33.53;7.28;;;;;;;9.87;100.00;97740.44;5048066;28;20056;-52
2023/12/09 10:38:34;;;;;;;29.95;6.05;;;;;;;9.85;100.00;97740.81;5047699;28;20061;-53
2023/12/09 10:41:04;;;;;;;22.20;5.22;;;;;;;9.84;100.00;97755.84;5046600;28;20052;-49
2023/12/09 10:43:31;;;;;;;37.55;8.20;;;;;;;9.82;100.00;97725.09;5046675;28;20045;-50
2023/12/09 10:45:59;;;;;;;28.92;6.13;;;;;;;9.83;100.00;97729.41;5047516;28;20044;-52
2023/12/09 10:48:28;;;;;;;30.27;5.50;;;;;;;9.82;100.00;97738.13;5037737;28;20064;-51
2023/12/09 10:50:57;;;;;;;30.00;5.20;;;;;;;9.81;100.00;97737.34;5036743;28;20057;-49
2023/12/09 10:53:24;;;;;;;39.08;10.38;;;;;;;9.82;100.00;97752.72;5032348;28;20407;-51
2023/12/09 10:55:52;;;;;;;44.28;8.55;;;;;;;9.84;100.00;97731.00;5037516;28;20052;-48
2023/12/09 10:58:20;;;;;;;27.80;6.03;;;;;;;9.86;100.00;97736.88;5034718;28;20667;-53
2023/12/09 11:00:50;;;;;;;32.88;7.80;;;;;;;9.87;100.00;97726.63;5035048;28;20045;-48
2023/12/09 11:03:23;;;;;;;33.55;7.43;;;;;;;9.85;100.00;97751.13;5034618;28;20049;-50
2023/12/09 11:05:52;;;;;;;;;;;;;;;9.80;100.00;97741.28;5033319;28;20041;-50
2023/12/09 11:08:21;;;;;;;31.17;5.43;;;;;;;9.80;100.00;97755.09;5027511;28;20425;-51
2023/12/09 11:10:48;;;;;;;42.95;8.30;;;;;;;9.77;100.00;97733.81;5035218;28;20052;-53
2023/12/09 11:13:18;;;;;;;31.30;7.50;;;;;;;9.75;100.00;97722.41;5039820;28;20052;-50
2023/12/09 11:15:45;;;;;;;29.08;6.15;;;;;;;9.74;100.00;97732.66;5029121;28;20515;-49
2023/12/09 11:18:16;;;;;;;26.67;6.45;;;;;;;9.75;100.00;97719.63;5031291;28;20049;-52
2023/12/09 11:20:46;;;;;;;23.45;4.93;;;;;;;9.75;100.00;97747.25;5030206;28;20091;-51
2023/12/09 11:23:14;;;;;;;30.77;8.27;;;;;;;9.77;100.00;97726.31;5030406;28;20826;-52
2023/12/09 11:25:42;;;;;;;33.03;5.65;;;;;;;9.78;100.00;97736.19;5034626;28;20407;-51
2023/12/09 11:28:11;;;;;;;27.45;6.43;;;;;;;9.80;100.00;97752.34;5027611;28;20538;-52
2023/12/09 11:30:41;;;;;;;30.63;6.38;;;;;;;9.81;100.00;97737.34;5016956;28;20082;-51
2023/12/09 11:33:10;;;;;;;28.35;6.20;;;;;;;9.82;100.00;97755.50;5036446;28;20704;-53
2023/12/09 11:35:38;;;;;;;36.40;6.15;;;;;;;9.84;99.76;97758.63;5020472;28;20068;-50